Time;durP1;ratioP1;P1;durP2;ratioP2;P2;SDS_P1;SDS_P2;PMS_P1;PMS_P2;Temp;Humidity;BMP_temperature;BMP_pressure;BME280_temperature;BME280_humidity;BME280_pressure;Samples;Min_cycle;Max_cycle;Signal;HPM_P1;HPM_P2
2022/09/29 00:00:10;;;;;;;9.55;6.18;;;;;;;5.50;95.11;99889.97;4911893;29;20028;-85
2022/09/29 00:02:36;;;;;;;10.25;6.60;;;;;;;5.48;94.85;99882.94;4907010;29;20080;-86
2022/09/29 00:05:01;;;;;;;11.20;6.80;;;;;;;5.48;95.30;99885.63;4877302;29;20111;-86
2022/09/29 00:07:33;;;;;;;9.82;7.22;;;;;;;5.51;95.63;99888.13;4892955;29;20055;-86
2022/09/29 00:09:58;;;;;;;11.30;7.18;;;;;;;5.52;95.80;99887.16;4893433;29;20048;-86
2022/09/29 00:12:24;;;;;;;11.65;6.78;;;;;;;5.48;95.37;99878.41;4877075;29;20072;-86
2022/09/29 00:14:50;;;;;;;14.80;7.53;;;;;;;5.52;95.54;99884.47;4894148;29;20088;-85
2022/09/29 00:17:15;;;;;;;14.77;8.15;;;;;;;5.49;95.69;99874.72;4907348;29;20523;-86
2022/09/29 00:19:41;;;;;;;10.18;7.40;;;;;;;5.49;94.85;99890.06;4900404;29;20516;-86
2022/09/29 00:22:06;;;;;;;11.23;7.00;;;;;;;5.42;94.88;99886.91;4892625;29;20044;-86
2022/09/29 00:24:32;;;;;;;9.18;6.32;;;;;;;5.38;94.38;99880.84;4877131;29;20155;-86
2022/09/29 00:26:57;;;;;;;10.75;7.07;;;;;;;5.31;94.88;99870.56;4907745;29;20025;-85
2022/09/29 00:29:23;;;;;;;11.13;6.80;;;;;;;5.31;94.73;99876.81;4876634;29;20064;-86
2022/09/29 00:31:48;;;;;;;10.05;6.07;;;;;;;5.29;94.37;99876.06;4892492;29;20043;-85
2022/09/29 00:34:14;;;;;;;10.88;7.10;;;;;;;5.29;94.33;99877.91;4909432;29;20048;-85
2022/09/29 00:36:40;;;;;;;8.45;6.10;;;;;;;5.22;94.15;99877.47;4892960;29;20044;-86
2022/09/29 00:39:05;;;;;;;8.10;6.40;;;;;;;5.23;94.13;99887.28;4908098;29;20044;-85
2022/09/29 00:41:33;;;;;;;8.68;6.43;;;;;;;5.18;94.50;99877.75;4911497;29;20496;-85
2022/09/29 00:44:08;;;;;;;9.80;5.90;;;;;;;5.16;93.92;99883.22;4910906;29;20055;-85
2022/09/29 00:46:49;;;;;;;7.47;5.80;;;;;;;5.12;94.05;99879.88;4897161;29;20586;-86
2022/09/29 00:49:22;;;;;;;7.95;6.15;;;;;;;5.09;94.37;99880.09;4893053;29;20047;-87
2022/09/29 00:51:55;;;;;;;9.15;6.03;;;;;;;5.07;94.66;99873.06;4911254;29;20044;-86
2022/09/29 00:54:23;;;;;;;9.57;7.18;;;;;;;5.08;94.50;99880.16;4910489;29;20122;-86
2022/09/29 00:56:49;;;;;;;9.65;6.20;;;;;;;5.01;94.33;99868.06;4918366;29;20040;-85
2022/09/29 00:59:24;;;;;;;9.27;6.50;;;;;;;5.02;94.33;99870.66;4892107;29;20054;-86
2022/09/29 01:01:51;;;;;;;12.85;6.38;;;;;;;4.97;94.45;99866.53;4876374;29;20452;-86
2022/09/29 01:04:18;;;;;;;10.50;6.78;;;;;;;5.01;94.87;99882.41;4892469;29;20040;-86
2022/09/29 01:06:56;;;;;;;14.40;7.47;;;;;;;4.99;94.75;99875.38;4908454;29;20040;-85
2022/09/29 01:09:30;;;;;;;10.90;6.93;;;;;;;4.97;95.04;99875.47;4908618;29;20411;-86
2022/09/29 01:12:00;;;;;;;9.55;6.30;;;;;;;4.95;94.73;99880.13;4892617;29;20119;-86
2022/09/29 01:14:27;;;;;;;7.72;6.07;;;;;;;4.93;94.56;99870.38;4876464;29;20457;-86
2022/09/29 01:16:52;;;;;;;7.95;6.05;;;;;;;4.86;94.45;99864.53;4893173;29;20084;-86
2022/09/29 01:19:28;;;;;;;11.18;7.32;;;;;;;4.81;94.42;99870.22;4893699;29;20116;-86
2022/09/29 01:22:09;;;;;;;8.00;6.10;;;;;;;4.82;94.22;99871.09;4892253;29;20048;-85
2022/09/29 01:25:05;;;;;;;8.73;5.97;;;;;;;4.81;94.45;99874.75;4892210;29;20049;-85
2022/09/29 01:28:08;;;;;;;11.18;6.70;;;;;;;4.79;94.50;99882.06;4892085;29;20055;-86
2022/09/29 01:30:36;;;;;;;10.10;6.60;;;;;;;4.75;94.17;99878.69;4876237;29;20112;-85
2022/09/29 01:33:19;;;;;;;7.88;6.10;;;;;;;4.71;94.40;99873.59;4887064;29;20067;-85
2022/09/29 01:35:55;;;;;;;9.40;6.22;;;;;;;4.69;94.52;99878.22;4927350;29;20040;-86
2022/09/29 01:39:03;;;;;;;10.85;7.28;;;;;;;4.70;94.79;99875.41;4910833;29;20539;-85
2022/09/29 01:41:47;;;;;;;10.68;7.50;;;;;;;4.70;94.94;99883.50;4893982;29;20512;-86
2022/09/29 01:44:36;;;;;;;12.38;8.40;;;;;;;4.70;95.14;99875.41;4879883;29;20048;-86
2022/09/29 01:47:09;;;;;;;12.77;7.63;;;;;;;4.74;95.68;99889.56;4896260;29;20208;-85
2022/09/29 01:49:39;;;;;;;11.63;7.78;;;;;;;4.72;95.55;99881.59;4911684;29;20091;-85
2022/09/29 01:52:08;;;;;;;11.30;7.13;;;;;;;4.68;94.75;99882.75;4879790;29;20353;-86
2022/09/29 01:54:45;;;;;;;11.98;7.45;;;;;;;4.64;94.81;99883.03;4879570;29;20463;-86
2022/09/29 01:57:33;;;;;;;14.88;7.70;;;;;;;4.56;94.58;99880.81;4912213;29;20071;-85
2022/09/29 02:00:08;;;;;;;8.32;6.50;;;;;;;4.54;94.67;99880.94;4910089;29;20080;-86
2022/09/29 02:02:52;;;;;;;11.80;7.25;;;;;;;4.55;95.29;99885.34;4910658;29;20048;-86
2022/09/29 02:05:56;;;;;;;10.55;7.60;;;;;;;4.55;95.34;99888.03;4895135;29;20074;-86
2022/09/29 02:08:31;;;;;;;13.25;6.93;;;;;;;4.49;95.21;99885.75;4877143;29;20064;-86
2022/09/29 02:11:11;;;;;;;10.38;6.78;;;;;;;4.51;95.16;99882.94;4879471;29;20376;-86
2022/09/29 02:13:48;;;;;;;14.57;6.82;;;;;;;4.49;94.90;99887.56;4894600;29;20389;-86
2022/09/29 02:16:16;;;;;;;10.77;6.57;;;;;;;4.45;94.97;99877.94;4905335;29;20123;-86
2022/09/29 02:18:51;;;;;;;8.82;7.10;;;;;;;4.43;94.85;99878.06;4909965;29;20059;-85
2022/09/29 02:21:16;;;;;;;12.07;7.03;;;;;;;4.45;94.71;99888.72;4910770;29;20028;-86
2022/09/29 02:23:41;;;;;;;8.80;6.55;;;;;;;4.41;95.24;99879.09;4894233;29;20052;-86
2022/09/29 02:26:09;;;;;;;9.18;6.88;;;;;;;4.38;94.89;99877.44;4912029;29;20047;-86
2022/09/29 02:28:35;;;;;;;20.27;7.60;;;;;;;4.39;94.76;99881.03;4894247;29;20040;-85
2022/09/29 02:31:01;;;;;;;11.27;7.32;;;;;;;4.42;95.41;99889.78;4894703;29;20072;-86
2022/09/29 02:33:26;;;;;;;11.38;7.18;;;;;;;4.31;95.43;99871.59;4908892;29;20065;-86
2022/09/29 02:36:16;;;;;;;10.38;7.05;;;;;;;4.40;95.03;99893.53;4913223;29;20036;-86
2022/09/29 02:38:50;;;;;;;9.80;6.93;;;;;;;4.35;95.20;99889.28;4899623;29;20387;-86
2022/09/29 02:41:34;;;;;;;13.77;7.88;;;;;;;4.35;95.51;99891.13;4894642;29;20416;-86
2022/09/29 02:44:10;;;;;;;10.40;8.00;;;;;;;4.30;95.70;99886.03;4909596;29;20140;-86
2022/09/29 02:46:48;;;;;;;21.13;9.00;;;;;;;4.30;96.04;99886.03;4894384;29;20047;-86
2022/09/29 02:49:41;;;;;;;12.30;8.07;;;;;;;4.31;96.13;99897.66;4895325;29;20579;-86
2022/09/29 02:52:25;;;;;;;;;;;;;;;4.32;95.25;99892.16;4893899;29;20048;-86
2022/09/29 02:55:06;;;;;;;10.82;7.32;;;;;;;4.27;95.60;99888.03;4878782;29;19925;-86
2022/09/29 02:58:02;;;;;;;12.38;7.95;;;;;;;4.26;95.49;99892.56;4894719;29;20056;-86
2022/09/29 03:00:29;;;;;;;12.65;8.05;;;;;;;4.24;95.14;99886.41;4909358;29;20036;-86
2022/09/29 03:02:54;;;;;;;10.73;7.20;;;;;;;4.18;95.08;99888.59;4877316;29;20474;-86
2022/09/29 03:05:21;;;;;;;13.65;7.28;;;;;;;4.16;95.26;99891.41;4894126;29;20095;-86
2022/09/29 03:07:47;;;;;;;13.40;7.70;;;;;;;4.15;95.09;99888.78;4909672;29;20048;-86
2022/09/29 03:10:14;;;;;;;9.88;7.68;;;;;;;4.15;95.25;99886.09;4910237;29;20033;-86
2022/09/29 03:12:41;;;;;;;13.13;7.90;;;;;;;4.13;94.89;99890.72;4909852;29;20381;-86
2022/09/29 03:15:07;;;;;;;12.68;7.05;;;;;;;4.08;94.97;99891.84;4893909;29;20111;-86
2022/09/29 03:17:33;;;;;;;11.23;7.32;;;;;;;4.04;94.63;99887.63;4891005;29;20060;-86
2022/09/29 03:19:58;;;;;;;9.68;8.02;;;;;;;4.01;95.25;99882.44;4893787;29;20506;-86
2022/09/29 03:22:24;;;;;;;12.13;7.53;;;;;;;4.04;95.97;99884.06;4909572;29;20401;-86
2022/09/29 03:24:50;;;;;;;11.88;8.38;;;;;;;3.98;96.33;99879.94;4898791;29;20040;-86
2022/09/29 03:27:16;;;;;;;13.70;8.52;;;;;;;3.98;96.05;99881.75;4912004;29;20036;-87
2022/09/29 03:29:41;;;;;;;13.70;7.95;;;;;;;3.97;96.20;99880.03;4897009;29;20067;-86
2022/09/29 03:32:07;;;;;;;11.25;7.70;;;;;;;3.95;95.72;99882.78;4908182;29;20160;-86
2022/09/29 03:34:32;;;;;;;14.27;7.60;;;;;;;3.94;95.87;99877.50;4896059;29;20048;-87
2022/09/29 03:36:58;;;;;;;14.27;8.68;;;;;;;3.92;95.80;99890.22;4910342;29;20040;-85
2022/09/29 03:39:24;;;;;;;10.75;7.70;;;;;;;3.92;95.47;99892.91;4910666;29;20106;-85
2022/09/29 03:41:50;;;;;;;14.60;8.10;;;;;;;3.86;95.69;99888.72;4894314;29;20044;-86
2022/09/29 03:44:15;;;;;;;10.18;7.22;;;;;;;3.87;95.27;99897.66;4892961;29;20044;-87
2022/09/29 03:46:41;;;;;;;17.40;8.98;;;;;;;3.88;95.49;99902.13;4895300;29;20435;-86
2022/09/29 03:49:10;;;;;;;11.50;7.95;;;;;;;3.83;95.63;99895.19;4894161;29;20167;-86
2022/09/29 03:51:37;;;;;;;13.60;8.40;;;;;;;3.80;96.21;99895.34;4909911;29;20089;-86
2022/09/29 03:54:02;;;;;;;11.55;8.07;;;;;;;3.80;95.92;99891.81;4909882;29;20551;-86
2022/09/29 03:56:28;;;;;;;13.88;7.93;;;;;;;3.76;95.95;99883.03;4893386;29;20225;-86
2022/09/29 03:58:53;;;;;;;8.30;6.72;;;;;;;3.79;95.24;99896.31;4895591;29;20048;-85
2022/09/29 04:01:19;;;;;;;11.50;7.88;;;;;;;3.77;95.50;99892.84;4912186;29;20095;-86
2022/09/29 04:03:44;;;;;;;13.05;8.45;;;;;;;3.74;95.78;99894.88;4895432;29;20476;-87
2022/09/29 04:06:09;;;;;;;11.93;8.55;;;;;;;3.74;95.81;99894.88;4893956;29;20077;-86
2022/09/29 04:08:36;;;;;;;10.85;8.55;;;;;;;3.71;95.58;99897.72;4893765;29;20139;-85
2022/09/29 04:11:01;;;;;;;11.45;8.00;;;;;;;3.69;95.39;99900.50;4893947;29;20028;-86
2022/09/29 04:13:27;;;;;;;11.32;7.47;;;;;;;3.67;95.05;99904.25;4911229;29;20381;-86
2022/09/29 04:15:57;;;;;;;9.85;7.53;;;;;;;3.64;94.98;99905.31;4897108;29;20479;-87
2022/09/29 04:18:23;;;;;;;14.23;7.57;;;;;;;3.66;95.15;99914.13;4901946;29;20044;-86
2022/09/29 04:20:48;;;;;;;10.27;6.97;;;;;;;3.65;95.03;99908.84;4893666;29;20496;-86
2022/09/29 04:23:14;;;;;;;11.10;7.28;;;;;;;3.59;95.12;99904.72;4894606;29;20064;-86
2022/09/29 04:25:39;;;;;;;11.50;7.50;;;;;;;3.61;95.51;99907.31;4898739;29;20040;-86
2022/09/29 04:28:05;;;;;;;10.32;7.30;;;;;;;3.55;95.36;99905.84;4896020;29;20126;-86
2022/09/29 04:30:31;;;;;;;11.07;7.93;;;;;;;3.55;95.27;99914.78;4894615;29;20039;-86
2022/09/29 04:32:56;;;;;;;11.27;6.93;;;;;;;3.52;95.18;99914.94;4899479;29;20416;-86
2022/09/29 04:35:22;;;;;;;10.30;7.22;;;;;;;3.49;94.92;99916.94;4908972;29;20376;-86
2022/09/29 04:37:47;;;;;;;10.35;6.70;;;;;;;3.45;95.10;99910.00;4893041;29;20032;-86
2022/09/29 04:40:13;;;;;;;10.13;7.45;;;;;;;3.46;95.56;99912.63;4909510;29;20032;-86
2022/09/29 04:42:38;;;;;;;9.70;6.63;;;;;;;3.43;95.33;99923.53;4877474;29;20076;-86
2022/09/29 04:45:04;;;;;;;14.13;6.53;;;;;;;3.38;95.05;99917.56;4892390;29;20068;-86
2022/09/29 04:47:29;;;;;;;15.88;7.35;;;;;;;3.36;94.95;99919.50;4908362;29;20091;-85
2022/09/29 04:49:55;;;;;;;12.20;7.53;;;;;;;3.38;94.92;99927.47;4908902;29;20032;-86
2022/09/29 04:52:21;;;;;;;11.02;7.45;;;;;;;3.39;95.20;99929.19;4894473;29;20076;-86
2022/09/29 04:54:46;;;;;;;13.77;8.23;;;;;;;3.35;94.81;99925.78;4893110;29;20408;-86
2022/09/29 04:57:11;;;;;;;18.13;6.90;;;;;;;3.30;95.10;99922.50;4910824;29;20130;-86
2022/09/29 04:59:37;;;;;;;11.70;7.35;;;;;;;3.25;95.05;99924.59;4892181;29;20024;-86
2022/09/29 05:02:02;;;;;;;11.63;7.70;;;;;;;3.29;95.54;99934.22;4909573;29;20075;-86
2022/09/29 05:04:27;;;;;;;11.45;7.57;;;;;;;3.30;95.64;99936.81;4895188;29;20037;-86
2022/09/29 05:06:53;;;;;;;12.43;7.03;;;;;;;3.26;95.83;99927.22;4887230;29;20054;-84
2022/09/29 05:09:18;;;;;;;9.27;6.38;;;;;;;3.28;95.75;99935.19;4907980;29;20080;-86
2022/09/29 05:11:43;;;;;;;10.35;6.95;;;;;;;3.27;96.03;99941.53;4899327;29;20051;-86
2022/09/29 05:14:10;;;;;;;16.02;9.20;;;;;;;3.26;96.03;99942.44;4910352;29;20135;-86
2022/09/29 05:16:35;;;;;;;11.30;7.15;;;;;;;3.25;95.66;99940.72;4912726;29;20040;-87
2022/09/29 05:19:00;;;;;;;13.43;8.35;;;;;;;3.19;95.27;99938.41;4898239;29;20044;-86
2022/09/29 05:21:26;;;;;;;14.98;9.30;;;;;;;3.17;95.38;99946.56;4914837;29;20035;-86
2022/09/29 05:23:51;;;;;;;16.92;9.30;;;;;;;3.19;95.60;99955.38;4900109;29;20445;-86
2022/09/29 05:26:17;;;;;;;12.55;8.02;;;;;;;3.18;95.29;99964.41;4921518;29;20047;-86
2022/09/29 05:28:45;;;;;;;14.55;9.13;;;;;;;3.18;95.65;99961.72;4910856;29;20020;-85
2022/09/29 05:31:10;;;;;;;16.42;8.57;;;;;;;3.15;95.24;99961.03;4896512;29;20040;-86
2022/09/29 05:33:37;;;;;;;13.88;8.65;;;;;;;3.14;95.55;99954.78;4895424;29;20043;-86
2022/09/29 05:36:07;;;;;;;11.48;7.88;;;;;;;3.15;95.38;99961.03;4895515;29;20024;-85
2022/09/29 05:38:34;;;;;;;13.82;8.10;;;;;;;3.12;95.48;99966.56;4912662;29;20099;-86
2022/09/29 05:41:06;;;;;;;12.15;7.63;;;;;;;3.14;95.32;99970.03;4897183;29;20043;-86
2022/09/29 05:43:32;;;;;;;10.38;7.07;;;;;;;3.14;95.08;99967.34;4912648;29;20506;-86
2022/09/29 05:46:05;;;;;;;17.08;8.57;;;;;;;3.15;95.47;99974.47;4912676;29;20024;-86
2022/09/29 05:48:30;;;;;;;12.55;8.15;;;;;;;3.12;95.75;99978.16;4911867;29;20039;-86
2022/09/29 05:50:56;;;;;;;9.88;7.50;;;;;;;3.09;95.74;99967.59;4913445;29;20032;-86
2022/09/29 05:53:22;;;;;;;15.45;7.38;;;;;;;3.04;95.75;99967.88;4913257;29;20032;-86
2022/09/29 05:55:48;;;;;;;11.65;7.30;;;;;;;3.07;96.16;99981.09;4930050;23;20079;-73
2022/09/29 05:58:13;;;;;;;10.02;7.15;;;;;;;3.06;95.99;99976.69;4922612;29;20180;-74
2022/09/29 06:00:39;;;;;;;11.25;6.82;;;;;;;3.10;95.50;99981.91;4931942;29;20034;-74
2022/09/29 06:03:04;;;;;;;9.48;7.25;;;;;;;3.04;95.34;99973.25;4925744;29;20142;-74
2022/09/29 06:05:30;;;;;;;16.80;7.60;;;;;;;3.10;95.64;99984.59;4932018;29;20077;-74
2022/09/29 06:07:55;;;;;;;9.68;7.05;;;;;;;3.10;95.39;99989.97;4931024;29;20032;-74
2022/09/29 06:10:21;;;;;;;14.18;7.88;;;;;;;3.13;95.81;99989.81;4931925;29;20464;-74
2022/09/29 06:12:47;;;;;;;11.32;7.15;;;;;;;3.13;95.75;99985.31;4930246;29;20407;-74
2022/09/29 06:15:12;;;;;;;10.90;7.07;;;;;;;3.17;95.78;99988.66;4931824;29;20047;-74
2022/09/29 06:17:38;;;;;;;11.23;7.28;;;;;;;3.19;95.88;99993.00;4910622;29;20040;-74
2022/09/29 06:20:05;;;;;;;10.98;7.32;;;;;;;3.22;95.93;99994.69;4930523;29;20456;-74
2022/09/29 06:22:31;;;;;;;11.50;8.13;;;;;;;3.25;95.83;99991.78;4932440;29;20047;-74
2022/09/29 06:24:57;;;;;;;12.55;8.48;;;;;;;3.28;95.88;100007.75;4931053;29;20027;-74
2022/09/29 06:27:22;;;;;;;10.20;7.78;;;;;;;3.29;95.56;99998.75;4918614;29;20039;-74
2022/09/29 06:29:48;;;;;;;15.70;8.98;;;;;;;3.32;96.39;99993.19;4930005;29;20446;-73
2022/09/29 06:32:13;;;;;;;12.82;7.63;;;;;;;3.38;97.22;100002.72;4924665;29;20115;-74
2022/09/29 06:37:33;;;;;;;15.20;8.48;;;;;;;3.40;96.95;100006.19;4930002;29;20474;-74
2022/09/29 06:37:33;;;;;;;15.32;7.88;;;;;;;3.41;97.23;100013.31;4924310;29;20506;-74
2022/09/29 06:39:59;;;;;;;13.80;9.48;;;;;;;3.45;97.41;100015.75;4925323;29;20043;-74
2022/09/29 06:42:25;;;;;;;14.25;9.23;;;;;;;3.48;97.65;100012.00;4920982;29;20031;-74
2022/09/29 06:44:50;;;;;;;12.90;8.23;;;;;;;3.49;97.14;100014.59;4916893;29;20543;-74
2022/09/29 06:47:15;;;;;;;14.98;8.25;;;;;;;3.51;97.39;100018.09;4925557;29;20075;-74
2022/09/29 06:49:41;;;;;;;16.83;9.60;;;;;;;3.57;97.31;100025.78;4931163;29;20468;-74
2022/09/29 06:52:07;;;;;;;14.70;8.52;;;;;;;3.62;97.57;100025.53;4930716;29;20039;-74
2022/09/29 06:54:32;;;;;;;15.48;10.15;;;;;;;3.66;97.56;100024.41;4931620;29;20495;-74
2022/09/29 06:56:59;;;;;;;18.25;9.43;;;;;;;3.71;98.06;100025.00;4930611;29;20062;-74
2022/09/29 06:59:25;;;;;;;19.67;11.55;;;;;;;3.78;98.22;100031.78;4931460;29;20051;-74
2022/09/29 07:01:50;;;;;;;20.17;10.98;;;;;;;3.85;98.60;100032.28;4921029;29;20032;-74
2022/09/29 07:04:17;;;;;;;18.15;11.38;;;;;;;3.93;99.29;100039.94;4930847;29;20051;-74
2022/09/29 07:06:44;;;;;;;17.65;11.88;;;;;;;3.96;99.01;100037.03;4932525;29;20074;-74
2022/09/29 07:09:14;;;;;;;22.25;12.35;;;;;;;4.03;99.40;100041.13;4921403;29;20048;-75
2022/09/29 07:11:44;;;;;;;20.63;13.27;;;;;;;4.07;99.93;100038.16;4913531;29;20047;-75
2022/09/29 07:14:09;;;;;;;20.80;13.45;;;;;;;4.18;100.00;100042.91;4926891;29;20036;-74
2022/09/29 07:16:34;;;;;;;34.13;16.73;;;;;;;4.30;100.00;100046.72;4929312;29;20487;-74
2022/09/29 07:19:00;;;;;;;25.95;15.13;;;;;;;4.37;100.00;100047.19;4929280;29;20043;-74
2022/09/29 07:21:25;;;;;;;29.38;16.05;;;;;;;4.45;100.00;100053.00;4930424;29;20035;-74
2022/09/29 07:23:50;;;;;;;28.17;15.57;;;;;;;4.50;100.00;100049.06;4917928;29;20510;-74
2022/09/29 07:26:16;;;;;;;29.08;17.33;;;;;;;4.56;100.00;100048.69;4922216;29;20049;-74
2022/09/29 07:28:43;;;;;;;30.48;17.02;;;;;;;4.66;100.00;100059.75;4931731;29;20078;-74
2022/09/29 07:31:12;;;;;;;33.50;18.17;;;;;;;4.75;100.00;100064.59;4914156;29;20039;-74
2022/09/29 07:33:37;;;;;;;34.30;17.55;;;;;;;4.80;100.00;100061.63;4929004;29;20111;-74
2022/09/29 07:36:03;;;;;;;34.97;19.00;;;;;;;4.85;100.00;100063.09;4930032;29;20039;-74
2022/09/29 07:38:29;;;;;;;34.65;19.08;;;;;;;4.92;100.00;100051.94;4929693;29;20036;-74
2022/09/29 07:41:12;;;;;;;37.10;18.75;;;;;;;4.95;100.00;100051.75;4930050;29;20106;-74
2022/09/29 07:43:38;;;;;;;37.35;18.83;;;;;;;4.99;100.00;100061.34;4930520;29;20130;-74
2022/09/29 07:46:04;;;;;;;34.35;19.30;;;;;;;5.08;100.00;100063.47;4930577;29;20499;-74
2022/09/29 07:48:32;;;;;;;36.20;19.80;;;;;;;5.15;100.00;100063.97;4927362;29;20126;-74
2022/09/29 07:51:01;;;;;;;35.72;21.70;;;;;;;5.24;100.00;100069.66;4921291;29;20424;-74
2022/09/29 07:53:27;;;;;;;35.47;20.83;;;;;;;5.30;100.00;100071.94;4912112;29;20146;-74
2022/09/29 07:55:53;;;;;;;36.45;20.70;;;;;;;5.34;100.00;100068.09;4918312;29;20048;-74
2022/09/29 07:58:18;;;;;;;42.10;22.80;;;;;;;5.44;100.00;100076.47;4909989;29;20032;-74
2022/09/29 08:00:43;;;;;;;39.90;21.95;;;;;;;5.53;100.00;100077.72;4915005;29;20051;-74
2022/09/29 08:03:09;;;;;;;39.10;21.55;;;;;;;5.60;100.00;100077.25;4929386;29;20032;-74
2022/09/29 08:05:34;;;;;;;49.88;23.55;;;;;;;5.66;100.00;100075.97;4931166;29;20051;-74
2022/09/29 08:08:01;;;;;;;39.80;20.33;;;;;;;5.67;100.00;100074.16;4932259;29;20049;-74
2022/09/29 08:10:27;;;;;;;36.30;20.42;;;;;;;5.82;100.00;100079.41;4923336;29;20032;-74
2022/09/29 08:12:54;;;;;;;43.55;21.88;;;;;;;5.95;100.00;100084.91;4927667;29;20505;-74
2022/09/29 08:15:19;;;;;;;40.85;21.85;;;;;;;6.01;100.00;100086.31;4913278;29;20161;-74
2022/09/29 08:17:45;;;;;;;42.28;23.23;;;;;;;6.10;100.00;100089.28;4913293;29;20044;-74
2022/09/29 08:20:10;;;;;;;45.55;22.23;;;;;;;6.24;100.00;100095.59;4932507;29;20479;-75
2022/09/29 08:22:36;;;;;;;38.22;21.65;;;;;;;6.34;100.00;100094.03;4930841;29;20414;-74
2022/09/29 08:25:01;;;;;;;46.03;22.15;;;;;;;6.46;100.00;100095.91;4921749;29;20034;-74
2022/09/29 08:27:28;;;;;;;41.78;23.52;;;;;;;6.55;100.00;100095.28;4931257;29;20043;-74
2022/09/29 08:29:53;;;;;;;34.70;20.40;;;;;;;6.67;100.00;100096.31;4932002;29;20036;-74
2022/09/29 08:32:19;;;;;;;41.35;21.33;;;;;;;6.78;100.00;100103.66;4913367;29;20363;-74
2022/09/29 08:34:44;;;;;;;37.70;21.02;;;;;;;6.88;100.00;100104.75;4927413;29;20040;-74
2022/09/29 08:37:10;;;;;;;42.45;22.52;;;;;;;6.98;100.00;100110.41;4927834;29;20036;-74
2022/09/29 08:39:36;;;;;;;33.85;19.35;;;;;;;7.08;100.00;100109.63;4925187;29;20087;-75
2022/09/29 08:42:19;;;;;;;36.08;20.40;;;;;;;7.22;100.00;100105.09;4931866;29;20658;-75
2022/09/29 08:44:54;;;;;;;38.33;20.50;;;;;;;7.34;100.00;100123.19;4930726;29;20517;-74
2022/09/29 08:47:43;;;;;;;35.70;19.27;;;;;;;7.46;100.00;100116.91;4925917;29;20036;-75
2022/09/29 08:50:27;;;;;;;32.63;19.83;;;;;;;7.61;100.00;100123.94;4912896;29;20048;-75
2022/09/29 08:52:58;;;;;;;33.45;18.58;;;;;;;7.72;100.00;100116.88;4915486;29;20452;-75
2022/09/29 08:55:45;;;;;;;33.30;19.55;;;;;;;7.77;100.00;100128.22;4917450;29;20407;-74
2022/09/29 08:58:13;;;;;;;32.25;18.52;;;;;;;7.75;100.00;100131.06;4934535;29;20495;-75
2022/09/29 09:00:48;;;;;;;28.60;17.40;;;;;;;7.72;100.00;100133.97;4933595;29;20035;-75
2022/09/29 09:03:36;;;;;;;26.42;16.42;;;;;;;7.68;100.00;100133.31;4932525;29;20032;-74
2022/09/29 09:06:39;;;;;;;27.92;17.58;;;;;;;7.67;100.00;100136.16;4934278;29;20048;-75
2022/09/29 09:09:10;;;;;;;24.52;16.13;;;;;;;7.64;100.00;100141.78;4934146;29;20479;-75
2022/09/29 09:12:03;;;;;;;32.63;17.00;;;;;;;7.62;99.75;100144.59;4934913;29;20043;-74
2022/09/29 09:15:03;;;;;;;27.70;16.88;;;;;;;7.64;100.00;100139.06;4933979;29;20122;-74
2022/09/29 09:17:56;;;;;;;33.13;17.75;;;;;;;7.64;99.72;100139.94;4932207;29;20035;-74
2022/09/29 09:20:40;;;;;;;29.45;18.08;;;;;;;7.68;99.93;100146.88;4916276;29;20115;-74
2022/09/29 09:23:19;;;;;;;30.75;17.92;;;;;;;7.73;100.00;100142.97;4916057;29;20051;-74
2022/09/29 09:25:53;;;;;;;27.17;16.80;;;;;;;7.81;100.00;100156.81;4920484;29;20453;-74
2022/09/29 09:28:31;;;;;;;30.58;17.73;;;;;;;7.89;99.74;100152.59;4934492;29;20043;-74
2022/09/29 09:31:18;;;;;;;28.80;16.90;;;;;;;8.03;99.78;100151.59;4934891;29;20048;-74
2022/09/29 09:33:56;;;;;;;31.48;17.83;;;;;;;8.17;99.76;100147.88;4925090;29;20067;-74
2022/09/29 09:36:31;;;;;;;23.98;15.90;;;;;;;8.34;99.95;100152.88;4916050;29;20492;-74
2022/09/29 09:39:03;;;;;;;25.13;16.23;;;;;;;8.54;100.00;100147.88;4930339;29;20102;-74
2022/09/29 09:41:30;;;;;;;29.93;17.43;;;;;;;8.66;100.00;100150.50;4916017;29;20040;-75
2022/09/29 09:44:14;;;;;;;30.83;18.48;;;;;;;8.91;99.83;100148.66;4932740;29;20044;-74
2022/09/29 09:46:51;;;;;;;28.33;17.17;;;;;;;9.04;97.98;100140.41;4933979;29;20126;-74
2022/09/29 09:49:25;;;;;;;26.38;17.30;;;;;;;9.19;98.46;100150.97;4934133;29;20039;-74
2022/09/29 09:52:02;;;;;;;28.83;18.63;;;;;;;9.37;97.66;100147.75;4924827;29;20044;-74
2022/09/29 09:54:37;;;;;;;28.77;16.60;;;;;;;9.57;97.40;100157.94;4934760;29;20095;-74
2022/09/29 09:57:29;;;;;;;22.77;13.65;;;;;;;9.78;97.33;100149.91;4934405;29;20051;-75
2022/09/29 10:00:01;;;;;;;21.02;13.40;;;;;;;9.95;95.34;100154.84;4934511;29;20343;-75
2022/09/29 10:02:29;;;;;;;19.90;13.45;;;;;;;10.11;95.59;100153.59;4923464;29;20123;-75
2022/09/29 10:04:55;;;;;;;18.70;11.77;;;;;;;10.18;91.00;100157.56;4934013;29;20050;-75
2022/09/29 10:07:24;;;;;;;18.90;11.55;;;;;;;10.30;93.83;100161.13;4933027;29;20432;-75
2022/09/29 10:09:49;;;;;;;17.58;10.65;;;;;;;10.35;89.60;100157.06;4934335;29;20094;-75
2022/09/29 10:12:17;;;;;;;18.08;9.75;;;;;;;10.49;91.41;100158.63;4929543;29;20048;-74
2022/09/29 10:14:56;;;;;;;13.02;8.60;;;;;;;10.66;91.00;100157.22;4914239;29;20028;-75
2022/09/29 10:17:26;;;;;;;11.80;7.70;;;;;;;10.92;89.72;100160.47;4919225;29;20777;-75
2022/09/29 10:19:53;;;;;;;15.82;10.43;;;;;;;11.33;93.83;100156.94;4933712;29;20394;-75
2022/09/29 10:22:19;;;;;;;13.20;8.48;;;;;;;11.70;92.07;100161.84;4934186;29;20048;-75
2022/09/29 10:24:44;;;;;;;13.70;8.50;;;;;;;12.03;89.05;100159.91;4925707;29;20377;-75
2022/09/29 10:27:16;;;;;;;13.52;8.30;;;;;;;12.36;90.45;100165.06;4932480;29;20039;-75
2022/09/29 10:29:48;;;;;;;10.57;6.57;;;;;;;12.59;82.70;100165.69;4933163;29;20035;-74
2022/09/29 10:32:35;;;;;;;12.85;5.35;;;;;;;12.77;81.98;100171.28;4929212;29;20040;-75
2022/09/29 10:35:15;;;;;;;8.30;5.43;;;;;;;12.96;82.92;100170.44;4932357;29;20059;-75
2022/09/29 10:37:46;;;;;;;8.90;4.75;;;;;;;13.21;78.92;100169.88;4934193;29;20440;-75
2022/09/29 10:40:22;;;;;;;8.02;5.00;;;;;;;13.58;80.94;100176.50;4932828;29;20482;-75
2022/09/29 10:42:50;;;;;;;6.30;4.63;;;;;;;13.90;80.17;100173.38;4933265;29;20112;-76
2022/09/29 10:45:17;;;;;;;5.90;3.85;;;;;;;14.14;76.63;100176.44;4933683;29;20073;-75
2022/09/29 10:47:58;;;;;;;6.72;4.25;;;;;;;14.36;74.21;100172.47;4928543;29;20115;-75
2022/09/29 10:50:32;;;;;;;4.28;3.70;;;;;;;14.32;70.76;100167.44;4915087;29;20036;-75
2022/09/29 10:53:00;;;;;;;4.85;3.75;;;;;;;14.33;69.39;100166.44;4915056;29;20441;-75
2022/09/29 10:55:47;;;;;;;4.55;3.38;;;;;;;14.53;74.18;100165.31;4931474;29;20077;-75
2022/09/29 10:58:33;;;;;;;6.00;3.88;;;;;;;14.91;73.96;100177.03;4933805;29;20150;-75
2022/09/29 11:01:13;;;;;;;6.53;3.83;;;;;;;15.20;71.82;100163.97;4929012;29;20123;-76
2022/09/29 11:03:47;;;;;;;6.45;3.95;;;;;;;15.46;72.08;100172.22;4927797;29;20063;-75
2022/09/29 11:06:13;;;;;;;6.20;4.10;;;;;;;15.49;68.83;100171.91;4933919;29;20403;-75
2022/09/29 11:09:04;;;;;;;9.63;4.22;;;;;;;15.83;72.26;100173.91;4931472;29;20530;-75
2022/09/29 11:11:38;;;;;;;5.03;4.13;;;;;;;15.62;64.74;100173.34;4933433;29;20126;-75
2022/09/29 11:14:03;;;;;;;5.53;3.40;;;;;;;15.69;68.50;100178.09;4931063;29;20032;-75
2022/09/29 11:16:36;;;;;;;5.22;3.10;;;;;;;15.88;67.46;100174.28;4933282;29;20047;-75
2022/09/29 11:19:06;;;;;;;3.95;2.78;;;;;;;16.26;67.18;100170.19;4915642;29;20048;-75
2022/09/29 11:21:41;;;;;;;4.13;2.30;;;;;;;16.54;66.41;100180.94;4914268;29;20547;-75
2022/09/29 11:24:28;;;;;;;1.88;1.60;;;;;;;16.94;66.68;100187.63;4912728;29;20044;-75
2022/09/29 11:27:09;;;;;;;2.97;2.10;;;;;;;17.16;61.67;100181.50;4927681;29;20130;-76
2022/09/29 11:29:45;;;;;;;4.13;2.00;;;;;;;17.46;64.90;100177.19;4913999;29;20056;-76
2022/09/29 11:32:41;;;;;;;4.20;2.40;;;;;;;17.34;60.55;100178.56;4913205;29;20051;-76
2022/09/29 11:35:28;;;;;;;4.38;2.50;;;;;;;17.17;61.08;100179.59;4932798;29;20351;-76
2022/09/29 11:38:15;;;;;;;3.80;2.17;;;;;;;17.28;61.87;100179.25;4932663;29;20039;-76
2022/09/29 11:41:09;;;;;;;4.70;2.50;;;;;;;17.40;65.64;100179.78;4933046;29;20516;-76
2022/09/29 11:43:52;;;;;;;5.78;2.20;;;;;;;17.57;63.24;100176.84;4923140;29;20048;-76